Harle — ZCTV4 — position and weather

sailwx.info

Track history (hours):
 
Tides and Currents Weather Stations Pressure Air Temp Water Temp Dewpoint Dewpoint Depression Visibility Wind Speed Wind Dir Waves Ship Positions

Harle

Last reported at 2016-Feb-07 17:33 UTC. Time now 2016-Feb-11 02:21 UTC.
Position N 18°19' W 064°50'.

Length 45 m; draft 2.7 m.

Type: Pleasure craft. MMSI: 319323000.

Date/timePositionNaut miles runAvg speedWind from/ knotsBaromVisibWave heightAir tempDewpointWater temp
2016-Feb-07 17:33N 18°19' W 064°50'2 0.4
2016-Feb-07 12:33N 18°21' W 064°50'5 4.4
2016-Feb-07 11:25N 18°22' W 064°45'0 0.0
2016-Feb-07 10:31N 18°22' W 064°45'0 0.0
2016-Feb-07 09:31N 18°22' W 064°45'0 0.0
2016-Feb-07 08:31N 18°22' W 064°45'0 0.0
2016-Feb-07 07:31N 18°22' W 064°45'0 0.1
2016-Feb-07 06:31N 18°22' W 064°45'0 0.0
2016-Feb-07 05:31N 18°22' W 064°45'0 0.0
2016-Feb-07 04:31N 18°22' W 064°45'0 0.0
2016-Feb-07 03:31N 18°22' W 064°45'0 0.0
2016-Feb-07 02:25N 18°22' W 064°45'0 0.0
2016-Feb-06 23:19N 18°22' W 064°45'0 0.0
2016-Feb-06 22:31N 18°22' W 064°45'0 0.0
2016-Feb-06 21:31N 18°22' W 064°45'0 0.0
2016-Feb-06 20:25N 18°22' W 064°45'0 0.0
2016-Feb-06 19:31N 18°22' W 064°45'0 0.0
2016-Feb-06 18:33N 18°22' W 064°45'7 6.7
2016-Feb-06 17:33N 18°18' W 064°50'4 0.8
2016-Feb-06 13:04N 18°18' W 064°54'611.2
2016-Feb-06 12:32N 18°17' W 064°48'1110.9
2016-Feb-06 11:33N 18°21' W 064°37'3 0.1
2016-Feb-05 14:11N 18°22' W 064°34'710.7
2016-Feb-05 13:33N 18°26' W 064°29'1 0.0
2016-Feb-04 13:30N 18°26' W 064°30'1010.6
2016-Feb-04 12:33N 18°22' W 064°40'6 4.7
2016-Feb-04 11:11N 18°26' W 064°45'0 0.0
2016-Feb-04 10:23N 18°26' W 064°45'0 0.0
2016-Feb-04 09:29N 18°26' W 064°45'0 0.0
2016-Feb-04 08:29N 18°26' W 064°45'0 0.0
2016-Feb-04 07:29N 18°26' W 064°45'0 0.0
2016-Feb-04 06:29N 18°26' W 064°45'0 0.0
2016-Feb-04 05:23N 18°26' W 064°45'0 0.0
2016-Feb-04 04:17N 18°26' W 064°45'0 0.0
2016-Feb-04 03:23N 18°26' W 064°45'0 0.0
2016-Feb-04 02:23N 18°26' W 064°45'0 0.0
2016-Feb-04 01:29N 18°26' W 064°45'0 0.0
2016-Feb-04 00:29N 18°26' W 064°45'0 0.0
2016-Feb-03 23:29N 18°26' W 064°45'0 0.0
2016-Feb-03 22:29N 18°26' W 064°45'0 0.0
2016-Feb-03 21:23N 18°26' W 064°45'0 0.0
2016-Feb-03 20:29N 18°26' W 064°45'1 0.7
2016-Feb-03 19:29N 18°26' W 064°46'0 0.1
2016-Feb-03 18:29N 18°26' W 064°46'0 0.0
2016-Feb-03 17:29N 18°26' W 064°46'0 0.0
2016-Feb-03 16:29N 18°26' W 064°46'0 0.0
2016-Feb-03 15:29N 18°26' W 064°46'0 0.0
2016-Feb-03 14:23N 18°26' W 064°46'0 0.0
2016-Feb-03 13:30N 18°26' W 064°46'8 8.8
2016-Feb-03 12:33N 18°22' W 064°38'3 0.1
2016-Feb-02 15:25N 18°22' W 064°35'7 0.3
2016-Feb-01 12:34N 18°23' W 064°42'3 2.7
2016-Feb-01 11:30N 18°22' W 064°45'0 0.0
2016-Feb-01 10:24N 18°22' W 064°45'0 0.0
2016-Feb-01 09:30N 18°22' W 064°45'0 0.0
2016-Feb-01 08:30N 18°22' W 064°45'0 0.0
2016-Feb-01 07:30N 18°22' W 064°45'0 0.0
2016-Feb-01 06:30N 18°22' W 064°45'0 0.0
2016-Feb-01 05:30N 18°22' W 064°45'0 0.0
2016-Feb-01 04:30N 18°22' W 064°45'0 0.0
2016-Feb-01 03:30N 18°22' W 064°45'0 0.0
2016-Feb-01 02:30N 18°22' W 064°45'0 0.0
2016-Feb-01 01:30N 18°22' W 064°45'0 0.0
2016-Feb-01 00:30N 18°22' W 064°45'0 0.0
2016-Jan-31 23:30N 18°22' W 064°45'0 0.0
2016-Jan-31 22:30N 18°22' W 064°45'0 0.0
2016-Jan-31 21:24N 18°22' W 064°45'0 0.0
2016-Jan-31 20:24N 18°22' W 064°45'0 0.0
2016-Jan-31 19:30N 18°22' W 064°45'0 0.0
2016-Jan-31 18:30N 18°22' W 064°45'0 0.0
2016-Jan-31 17:24N 18°22' W 064°45'0 0.0
2016-Jan-31 16:30N 18°22' W 064°45'0 0.0
2016-Jan-31 15:30N 18°22' W 064°45'0 0.0
2016-Jan-31 14:30N 18°22' W 064°45'0 0.0
2016-Jan-31 13:30N 18°22' W 064°45'0 0.0
2016-Jan-31 12:24N 18°22' W 064°45'0 0.0
2016-Jan-31 10:30N 18°22' W 064°45'0 0.0
2016-Jan-31 09:30N 18°22' W 064°45'0 0.0
2016-Jan-31 08:30N 18°22' W 064°45'0 0.0
2016-Jan-31 07:12N 18°22' W 064°45'0 0.0
2016-Jan-31 06:30N 18°22' W 064°45'0 0.0
2016-Jan-31 05:30N 18°22' W 064°45'0 0.0
2016-Jan-31 04:24N 18°22' W 064°45'0 0.0
2016-Jan-31 03:24N 18°22' W 064°45'0 0.0
2016-Jan-31 02:30N 18°22' W 064°45'0 0.0
2016-Jan-31 01:24N 18°22' W 064°45'0 0.0
2016-Jan-31 00:30N 18°22' W 064°45'0 0.0
2016-Jan-30 23:12N 18°22' W 064°45'0 0.0
2016-Jan-30 22:18N 18°22' W 064°45'6 2.0
2016-Jan-30 19:20N 18°17' W 064°49'  
Track history (hours):
 
Tides and Currents Weather Stations Pressure Air Temp Water Temp Dewpoint Dewpoint Depression Visibility Wind Speed Wind Dir Waves Ship Positions

Harle

Last reported at 2016-Feb-07 17:33 UTC. Time now 2016-Feb-11 02:21 UTC.
Position N 18°19' W 064°50'.

Length 45 m; draft 2.7 m.

Type: Pleasure craft. MMSI: 319323000.

Date/timePositionNaut miles runAvg speedWind from/ knotsBaromVisibWave heightAir tempDewpointWater temp
2016-Feb-07 17:33N 18°19' W 064°50'2 0.4
2016-Feb-07 12:33N 18°21' W 064°50'5 4.4
2016-Feb-07 11:25N 18°22' W 064°45'0 0.0
2016-Feb-07 10:31N 18°22' W 064°45'0 0.0
2016-Feb-07 09:31N 18°22' W 064°45'0 0.0
2016-Feb-07 08:31N 18°22' W 064°45'0 0.0
2016-Feb-07 07:31N 18°22' W 064°45'0 0.1
2016-Feb-07 06:31N 18°22' W 064°45'0 0.0
2016-Feb-07 05:31N 18°22' W 064°45'0 0.0
2016-Feb-07 04:31N 18°22' W 064°45'0 0.0
2016-Feb-07 03:31N 18°22' W 064°45'0 0.0
2016-Feb-07 02:25N 18°22' W 064°45'0 0.0
2016-Feb-06 23:19N 18°22' W 064°45'0 0.0
2016-Feb-06 22:31N 18°22' W 064°45'0 0.0
2016-Feb-06 21:31N 18°22' W 064°45'0 0.0
2016-Feb-06 20:25N 18°22' W 064°45'0 0.0
2016-Feb-06 19:31N 18°22' W 064°45'0 0.0
2016-Feb-06 18:33N 18°22' W 064°45'7 6.7
2016-Feb-06 17:33N 18°18' W 064°50'4 0.8
2016-Feb-06 13:04N 18°18' W 064°54'611.2
2016-Feb-06 12:32N 18°17' W 064°48'1110.9
2016-Feb-06 11:33N 18°21' W 064°37'3 0.1
2016-Feb-05 14:11N 18°22' W 064°34'710.7
2016-Feb-05 13:33N 18°26' W 064°29'1 0.0
2016-Feb-04 13:30N 18°26' W 064°30'1010.6
2016-Feb-04 12:33N 18°22' W 064°40'6 4.7
2016-Feb-04 11:11N 18°26' W 064°45'0 0.0
2016-Feb-04 10:23N 18°26' W 064°45'0 0.0
2016-Feb-04 09:29N 18°26' W 064°45'0 0.0
2016-Feb-04 08:29N 18°26' W 064°45'0 0.0
2016-Feb-04 07:29N 18°26' W 064°45'0 0.0
2016-Feb-04 06:29N 18°26' W 064°45'0 0.0
2016-Feb-04 05:23N 18°26' W 064°45'0 0.0
2016-Feb-04 04:17N 18°26' W 064°45'0 0.0
2016-Feb-04 03:23N 18°26' W 064°45'0 0.0
2016-Feb-04 02:23N 18°26' W 064°45'0 0.0
2016-Feb-04 01:29N 18°26' W 064°45'0 0.0
2016-Feb-04 00:29N 18°26' W 064°45'0 0.0
2016-Feb-03 23:29N 18°26' W 064°45'0 0.0
2016-Feb-03 22:29N 18°26' W 064°45'0 0.0
2016-Feb-03 21:23N 18°26' W 064°45'0 0.0
2016-Feb-03 20:29N 18°26' W 064°45'1 0.7
2016-Feb-03 19:29N 18°26' W 064°46'0 0.1
2016-Feb-03 18:29N 18°26' W 064°46'0 0.0
2016-Feb-03 17:29N 18°26' W 064°46'0 0.0
2016-Feb-03 16:29N 18°26' W 064°46'0 0.0
2016-Feb-03 15:29N 18°26' W 064°46'0 0.0
2016-Feb-03 14:23N 18°26' W 064°46'0 0.0
2016-Feb-03 13:30N 18°26' W 064°46'8 8.8
2016-Feb-03 12:33N 18°22' W 064°38'3 0.1
2016-Feb-02 15:25N 18°22' W 064°35'7 0.3
2016-Feb-01 12:34N 18°23' W 064°42'3 2.7
2016-Feb-01 11:30N 18°22' W 064°45'0 0.0
2016-Feb-01 10:24N 18°22' W 064°45'0 0.0
2016-Feb-01 09:30N 18°22' W 064°45'0 0.0
2016-Feb-01 08:30N 18°22' W 064°45'0 0.0
2016-Feb-01 07:30N 18°22' W 064°45'0 0.0
2016-Feb-01 06:30N 18°22' W 064°45'0 0.0
2016-Feb-01 05:30N 18°22' W 064°45'0 0.0
2016-Feb-01 04:30N 18°22' W 064°45'0 0.0
2016-Feb-01 03:30N 18°22' W 064°45'0 0.0
2016-Feb-01 02:30N 18°22' W 064°45'0 0.0
2016-Feb-01 01:30N 18°22' W 064°45'0 0.0
2016-Feb-01 00:30N 18°22' W 064°45'0 0.0
2016-Jan-31 23:30N 18°22' W 064°45'0 0.0
2016-Jan-31 22:30N 18°22' W 064°45'0 0.0
2016-Jan-31 21:24N 18°22' W 064°45'0 0.0
2016-Jan-31 20:24N 18°22' W 064°45'0 0.0
2016-Jan-31 19:30N 18°22' W 064°45'0 0.0
2016-Jan-31 18:30N 18°22' W 064°45'0 0.0
2016-Jan-31 17:24N 18°22' W 064°45'0 0.0
2016-Jan-31 16:30N 18°22' W 064°45'0 0.0
2016-Jan-31 15:30N 18°22' W 064°45'0 0.0
2016-Jan-31 14:30N 18°22' W 064°45'0 0.0
2016-Jan-31 13:30N 18°22' W 064°45'0 0.0
2016-Jan-31 12:24N 18°22' W 064°45'0 0.0
2016-Jan-31 10:30N 18°22' W 064°45'0 0.0
2016-Jan-31 09:30N 18°22' W 064°45'0 0.0
2016-Jan-31 08:30N 18°22' W 064°45'0 0.0
2016-Jan-31 07:12N 18°22' W 064°45'0 0.0
2016-Jan-31 06:30N 18°22' W 064°45'0 0.0
2016-Jan-31 05:30N 18°22' W 064°45'0 0.0
2016-Jan-31 04:24N 18°22' W 064°45'0 0.0
2016-Jan-31 03:24N 18°22' W 064°45'0 0.0
2016-Jan-31 02:30N 18°22' W 064°45'0 0.0
2016-Jan-31 01:24N 18°22' W 064°45'0 0.0
2016-Jan-31 00:30N 18°22' W 064°45'0 0.0
2016-Jan-30 23:12N 18°22' W 064°45'0 0.0
2016-Jan-30 22:18N 18°22' W 064°45'6 2.0
2016-Jan-30 19:20N 18°17' W 064°49'  

Dump ship's entire track history